createdAt,value
2023-05-07T00:01:09.135Z,18.43
2023-05-07T00:03:37.818Z,17.13
2023-05-07T00:06:05.718Z,19.37
2023-05-07T00:08:33.546Z,20.30
2023-05-07T00:11:01.142Z,20.77
2023-05-07T00:13:31.753Z,20.87
2023-05-07T00:15:59.494Z,21.40
2023-05-07T00:18:27.156Z,19.50
2023-05-07T00:20:55.043Z,19.23
2023-05-07T00:23:23.796Z,20.50
2023-05-07T00:25:51.425Z,19.30
2023-05-07T00:28:19.191Z,18.63
2023-05-07T00:30:46.807Z,19.63
2023-05-07T00:33:14.515Z,19.27
2023-05-07T00:35:43.755Z,21.50
2023-05-07T00:38:11.383Z,19.03
2023-05-07T00:40:39.134Z,22.30
2023-05-07T00:43:07.730Z,21.17
2023-05-07T00:45:35.883Z,18.87
2023-05-07T00:48:05.520Z,21.97
2023-05-07T00:50:34.834Z,22.77
2023-05-07T00:53:03.590Z,21.20
2023-05-07T00:55:31.742Z,20.10
2023-05-07T00:57:59.919Z,20.80
2023-05-07T01:00:28.006Z,21.37
2023-05-07T01:02:56.531Z,22.43
2023-05-07T01:05:27.924Z,21.03
2023-05-07T01:07:58.786Z,23.73
2023-05-07T01:10:27.102Z,21.43
2023-05-07T01:12:59.274Z,23.37
2023-05-07T01:15:27.312Z,22.83
2023-05-07T01:17:55.287Z,23.30
2023-05-07T01:20:30.296Z,24.57
2023-05-07T01:23:00.722Z,26.90
2023-05-07T01:25:29.928Z,24.70
2023-05-07T01:28:03.437Z,25.77
2023-05-07T01:30:38.907Z,26.30
2023-05-07T01:33:16.805Z,25.53
2023-05-07T01:35:54.185Z,24.80
2023-05-07T01:38:24.895Z,26.23
2023-05-07T01:40:54.334Z,26.00
2023-05-07T01:43:22.043Z,25.63
2023-05-07T01:45:51.010Z,24.40
2023-05-07T01:48:19.803Z,26.13
2023-05-07T01:50:49.086Z,24.87
2023-05-07T01:53:18.784Z,25.40
2023-05-07T01:55:47.923Z,23.07
2023-05-07T01:58:17.047Z,26.03
2023-05-07T02:00:44.817Z,24.67
2023-05-07T02:03:12.675Z,24.77
2023-05-07T02:05:47.976Z,24.90
2023-05-07T02:08:37.267Z,22.73
2023-05-07T02:11:06.019Z,23.90
2023-05-07T02:13:35.906Z,24.70
2023-05-07T02:16:05.112Z,24.40
2023-05-07T02:18:33.032Z,24.70
2023-05-07T02:21:00.632Z,25.50
2023-05-07T02:23:28.505Z,25.27
2023-05-07T02:25:56.861Z,23.33
2023-05-07T02:28:24.806Z,25.10
2023-05-07T02:31:01.697Z,25.43
2023-05-07T02:33:31.112Z,25.23
2023-05-07T02:36:11.357Z,25.87
2023-05-07T02:38:46.354Z,24.90
2023-05-07T02:41:13.982Z,25.80
2023-05-07T02:43:41.556Z,26.07
2023-05-07T02:46:11.059Z,25.70
2023-05-07T02:48:42.993Z,24.63
2023-05-07T02:51:11.011Z,25.30
2023-05-07T02:53:41.567Z,25.93
2023-05-07T02:56:09.200Z,28.90
2023-05-07T02:58:36.817Z,27.57
2023-05-07T03:01:05.603Z,28.13
2023-05-07T03:03:55.506Z,27.87
2023-05-07T03:06:23.487Z,27.17
2023-05-07T03:08:51.097Z,28.27
2023-05-07T03:11:19.066Z,28.73
2023-05-07T03:13:46.797Z,27.77
2023-05-07T03:16:14.839Z,28.07
2023-05-07T03:18:42.450Z,28.80
2023-05-07T03:21:10.822Z,28.53
2023-05-07T03:23:38.831Z,27.97
2023-05-07T03:26:07.132Z,30.77
2023-05-07T03:28:34.806Z,27.50
2023-05-07T03:31:06.198Z,28.43
2023-05-07T03:33:56.027Z,29.20
2023-05-07T03:36:27.877Z,29.97
2023-05-07T03:38:56.794Z,30.47
2023-05-07T03:41:28.019Z,28.53
2023-05-07T03:43:56.117Z,28.20
2023-05-07T03:46:23.842Z,28.60
2023-05-07T03:48:51.949Z,28.80
2023-05-07T03:51:20.775Z,30.70
2023-05-07T03:53:48.457Z,27.87
2023-05-07T03:56:17.781Z,28.87
2023-05-07T03:58:47.249Z,26.70
2023-05-07T04:01:15.287Z,26.17
2023-05-07T04:03:43.092Z,27.23
2023-05-07T04:06:10.762Z,27.10
2023-05-07T04:08:38.477Z,28.07
2023-05-07T04:11:07.668Z,25.90
2023-05-07T04:13:37.925Z,25.53
2023-05-07T04:16:08.387Z,27.30
2023-05-07T04:18:37.688Z,28.97
2023-05-07T04:21:07.020Z,25.83
2023-05-07T04:23:37.848Z,26.20
2023-05-07T04:26:09.618Z,28.03
2023-05-07T04:28:41.835Z,24.87
2023-05-07T04:31:09.807Z,25.57
2023-05-07T04:33:38.857Z,23.90
2023-05-07T04:36:09.800Z,25.07
2023-05-07T04:38:44.637Z,24.50
2023-05-07T04:41:15.001Z,24.20
2023-05-07T04:43:42.840Z,24.40
2023-05-07T04:46:12.721Z,24.50
2023-05-07T04:48:41.532Z,23.47
2023-05-07T04:51:09.260Z,20.97
2023-05-07T04:53:38.656Z,20.87
2023-05-07T04:56:07.090Z,21.07
2023-05-07T04:58:41.320Z,19.97
2023-05-07T05:01:09.557Z,18.93
2023-05-07T05:03:40.941Z,18.77
2023-05-07T05:06:11.516Z,18.13
2023-05-07T05:08:40.250Z,18.87
2023-05-07T05:11:09.292Z,17.50
2023-05-07T05:13:39.137Z,15.73
2023-05-07T05:16:15.350Z,16.40
2023-05-07T05:18:44.337Z,16.43
2023-05-07T05:21:14.715Z,18.50
2023-05-07T05:23:44.862Z,16.73
2023-05-07T05:26:14.080Z,17.23
2023-05-07T05:28:42.519Z,16.83
2023-05-07T05:31:10.867Z,16.27
2023-05-07T05:33:38.560Z,16.00
2023-05-07T05:36:10.189Z,16.33
2023-05-07T05:38:38.902Z,15.97
2023-05-07T05:41:07.629Z,16.80
2023-05-07T05:43:36.168Z,14.77
2023-05-07T05:46:05.627Z,14.40
2023-05-07T05:48:33.339Z,14.70
2023-05-07T05:51:02.804Z,13.30
2023-05-07T05:53:30.542Z,11.23
2023-05-07T05:55:58.551Z,10.63
2023-05-07T05:58:26.396Z,10.00
2023-05-07T06:00:59.809Z,9.20
2023-05-07T06:03:29.358Z,9.37
2023-05-07T06:06:01.200Z,8.00
2023-05-07T06:08:31.756Z,8.50
2023-05-07T06:11:01.246Z,8.30
2023-05-07T06:13:31.577Z,7.93
2023-05-07T06:15:59.365Z,8.13
2023-05-07T06:18:27.248Z,7.47
2023-05-07T06:20:58.399Z,7.87
2023-05-07T06:23:30.470Z,6.60
2023-05-07T06:25:58.226Z,6.80
2023-05-07T06:28:36.812Z,6.83
2023-05-07T06:31:21.671Z,7.33
2023-05-07T06:34:08.816Z,6.93
2023-05-07T06:36:38.961Z,8.77
2023-05-07T06:39:25.680Z,7.40
2023-05-07T06:41:54.706Z,8.60
2023-05-07T06:44:27.185Z,8.00
2023-05-07T06:47:09.208Z,8.07
2023-05-07T06:49:39.989Z,7.60
2023-05-07T06:52:07.713Z,8.00
2023-05-07T06:54:35.505Z,7.73
2023-05-07T06:57:03.181Z,7.60
2023-05-07T06:59:31.787Z,7.23
2023-05-07T07:02:00.822Z,7.60
2023-05-07T07:04:29.602Z,6.80
2023-05-07T07:07:03.438Z,6.93
2023-05-07T07:09:31.132Z,7.37
2023-05-07T07:11:59.897Z,6.43
2023-05-07T07:14:27.617Z,7.20
2023-05-07T07:16:55.824Z,6.40
2023-05-07T07:19:25.349Z,6.60
2023-05-07T07:21:55.807Z,6.63
2023-05-07T07:24:23.561Z,7.60
2023-05-07T07:26:56.566Z,7.17
2023-05-07T07:29:27.754Z,6.60
2023-05-07T07:31:56.213Z,7.43
2023-05-07T07:34:24.548Z,7.13
2023-05-07T07:36:52.261Z,8.37
2023-05-07T07:39:20.825Z,10.63
2023-05-07T07:41:51.454Z,8.87
2023-05-07T07:44:20.528Z,10.10
2023-05-07T07:46:54.189Z,7.47
2023-05-07T07:49:23.219Z,8.27
2023-05-07T07:51:52.184Z,6.20
2023-05-07T07:54:20.002Z,6.03
2023-05-07T07:56:47.767Z,7.00
2023-05-07T07:59:19.896Z,5.33
2023-05-07T08:01:53.453Z,6.30
2023-05-07T08:04:24.344Z,6.40
2023-05-07T08:06:52.576Z,7.40
2023-05-07T08:09:21.389Z,8.50
2023-05-07T08:11:50.254Z,7.93
2023-05-07T08:14:18.933Z,8.77
2023-05-07T08:16:49.050Z,7.93
2023-05-07T08:19:16.871Z,8.60
2023-05-07T08:21:46.057Z,9.70
2023-05-07T08:24:13.643Z,9.70
2023-05-07T08:26:41.820Z,11.43
2023-05-07T08:29:11.369Z,8.47
2023-05-07T08:31:40.645Z,9.80
2023-05-07T08:34:10.097Z,8.93
2023-05-07T08:36:43.043Z,10.20
2023-05-07T08:39:12.697Z,10.27
2023-05-07T08:41:41.782Z,8.93
2023-05-07T08:44:17.639Z,9.70
2023-05-07T08:46:50.913Z,9.83
2023-05-07T08:49:19.310Z,9.83
2023-05-07T08:51:48.047Z,10.63
2023-05-07T08:54:18.937Z,9.93
2023-05-07T08:56:47.226Z,10.00
2023-05-07T08:59:15.512Z,10.13
2023-05-07T09:01:44.946Z,9.03
2023-05-07T09:04:14.290Z,10.10
2023-05-07T09:06:43.261Z,9.60
2023-05-07T09:09:21.781Z,10.13
2023-05-07T09:12:03.070Z,10.70
2023-05-07T09:14:33.533Z,10.40
2023-05-07T09:17:02.885Z,11.00
2023-05-07T09:19:32.477Z,10.37
2023-05-07T09:22:08.587Z,11.10
2023-05-07T09:24:51.689Z,10.33
2023-05-07T09:27:23.624Z,11.30
2023-05-07T09:29:52.003Z,10.30
2023-05-07T09:32:19.965Z,10.57
2023-05-07T09:34:48.341Z,10.23
2023-05-07T09:37:18.820Z,10.67
2023-05-07T09:39:51.066Z,9.53
2023-05-07T09:42:27.735Z,9.70
2023-05-07T09:45:00.603Z,9.50
2023-05-07T09:47:39.995Z,8.90
2023-05-07T09:50:13.762Z,7.73
2023-05-07T09:52:45.210Z,7.00
2023-05-07T09:55:14.428Z,8.30
2023-05-07T09:57:46.251Z,8.13
2023-05-07T10:00:16.544Z,8.67
2023-05-07T10:02:54.096Z,8.53
2023-05-07T10:05:35.229Z,8.00
2023-05-07T10:08:04.948Z,7.50
2023-05-07T10:10:36.322Z,8.10
2023-05-07T10:13:11.296Z,7.53
2023-05-07T10:15:43.391Z,7.13
2023-05-07T10:18:13.700Z,7.57
2023-05-07T10:20:48.095Z,5.60
2023-05-07T10:23:26.530Z,5.60
2023-05-07T10:26:05.266Z,5.70
2023-05-07T10:28:46.107Z,5.20
2023-05-07T10:32:07.810Z,4.33
2023-05-07T10:34:46.727Z,6.27
2023-05-07T10:37:16.251Z,5.87
2023-05-07T10:39:44.856Z,7.73
2023-05-07T10:42:16.140Z,7.00
2023-05-07T10:44:50.027Z,5.70
2023-05-07T10:47:24.362Z,4.00
2023-05-07T10:50:08.516Z,4.63
2023-05-07T10:52:40.695Z,4.70
2023-05-07T10:55:19.926Z,4.00
2023-05-07T10:58:31.263Z,3.50
2023-05-07T11:02:07.810Z,4.33
2023-05-07T11:04:42.931Z,4.17
2023-05-07T11:07:31.208Z,4.50
2023-05-07T11:10:08.799Z,4.47
2023-05-07T11:12:57.425Z,3.47
2023-05-07T11:15:49.285Z,3.47
2023-05-07T11:18:23.657Z,3.20
2023-05-07T11:21:01.033Z,3.80
2023-05-07T11:23:42.848Z,3.30
2023-05-07T11:26:28.297Z,3.30
2023-05-07T11:28:56.999Z,4.10
2023-05-07T11:31:31.020Z,3.80
2023-05-07T11:34:02.833Z,3.83
2023-05-07T11:36:34.626Z,3.97
2023-05-07T11:39:04.539Z,3.30
2023-05-07T11:41:43.912Z,3.37
2023-05-07T11:44:11.701Z,3.87
2023-05-07T11:46:45.920Z,3.70
2023-05-07T11:49:13.958Z,3.17
2023-05-07T11:51:42.995Z,3.00
2023-05-07T11:54:12.495Z,4.00
2023-05-07T11:56:40.165Z,3.40
2023-05-07T11:59:08.045Z,3.37
2023-05-07T12:01:38.232Z,3.40
2023-05-07T12:04:06.708Z,4.13
2023-05-07T12:06:39.723Z,3.77
2023-05-07T12:09:12.495Z,4.00
2023-05-07T12:11:40.956Z,4.10
2023-05-07T12:14:11.569Z,4.10
2023-05-07T12:16:42.317Z,4.27
2023-05-07T12:19:15.682Z,3.93
2023-05-07T12:21:44.092Z,5.00
2023-05-07T12:24:12.536Z,4.40
2023-05-07T12:26:41.905Z,4.03
2023-05-07T12:29:09.731Z,3.67
2023-05-07T12:31:37.345Z,3.50
2023-05-07T12:34:05.150Z,3.90
2023-05-07T12:36:42.514Z,4.10
2023-05-07T12:39:11.169Z,3.27
2023-05-07T12:42:00.551Z,4.50
2023-05-07T12:44:34.312Z,4.50
2023-05-07T12:47:05.252Z,4.87
2023-05-07T12:49:35.727Z,5.00
2023-05-07T12:52:03.646Z,5.80
2023-05-07T12:54:39.753Z,7.83
2023-05-07T12:57:12.561Z,6.70
2023-05-07T12:59:43.548Z,6.50
2023-05-07T13:02:11.333Z,6.50
2023-05-07T13:04:41.189Z,6.03
2023-05-07T13:07:08.827Z,6.03
2023-05-07T13:09:38.223Z,7.30
2023-05-07T13:12:07.297Z,6.40
2023-05-07T13:14:34.969Z,6.90
2023-05-07T13:17:03.254Z,6.83
2023-05-07T13:19:31.569Z,7.67
2023-05-07T13:21:59.244Z,7.97
2023-05-07T13:24:26.859Z,8.63
2023-05-07T13:26:54.469Z,7.73
2023-05-07T13:29:29.656Z,8.10
2023-05-07T13:31:59.432Z,7.63
2023-05-07T13:34:27.649Z,7.67
2023-05-07T13:36:55.179Z,6.73
2023-05-07T13:39:23.360Z,7.37
2023-05-07T13:41:51.102Z,8.53
2023-05-07T13:44:18.683Z,8.33
2023-05-07T13:46:46.605Z,9.10
2023-05-07T13:49:14.458Z,9.17
2023-05-07T13:51:42.589Z,9.47
2023-05-07T13:54:10.233Z,9.30
2023-05-07T13:56:38.069Z,9.03
2023-05-07T13:59:05.650Z,9.40
2023-05-07T14:01:33.337Z,9.70
2023-05-07T14:04:01.067Z,8.57
2023-05-07T14:06:28.787Z,9.87
2023-05-07T14:08:59.144Z,9.20
2023-05-07T14:11:27.044Z,10.13
2023-05-07T14:13:54.609Z,11.53
2023-05-07T14:16:22.270Z,11.03
2023-05-07T14:18:49.872Z,12.27
2023-05-07T14:21:17.567Z,15.23
2023-05-07T14:23:45.215Z,15.37
2023-05-07T14:26:12.849Z,15.27
2023-05-07T14:28:47.126Z,30.10
2023-05-07T14:31:15.065Z,14.40
2023-05-07T14:33:42.711Z,10.80
2023-05-07T14:36:10.356Z,10.47
2023-05-07T14:38:38.009Z,10.90
2023-05-07T14:41:05.940Z,10.90
2023-05-07T14:43:33.522Z,11.87
2023-05-07T14:46:01.655Z,11.40
2023-05-07T14:48:30.655Z,11.07
2023-05-07T14:50:58.254Z,11.20
2023-05-07T14:53:26.277Z,9.10
2023-05-07T14:55:53.917Z,8.43
2023-05-07T14:58:22.322Z,9.27
2023-05-07T15:00:51.480Z,10.83
2023-05-07T15:03:19.261Z,9.63
2023-05-07T15:05:47.871Z,9.50
2023-05-07T15:08:17.137Z,9.97
2023-05-07T15:10:44.964Z,11.10
2023-05-07T15:13:16.247Z,11.13
2023-05-07T15:15:45.881Z,9.97
2023-05-07T15:18:14.736Z,10.70
2023-05-07T15:20:43.756Z,10.47
2023-05-07T15:23:13.104Z,10.13
2023-05-07T15:25:42.365Z,9.10
2023-05-07T15:28:10.237Z,9.70
2023-05-07T15:30:38.026Z,8.83
2023-05-07T15:33:06.708Z,10.10
2023-05-07T15:35:34.600Z,9.53
2023-05-07T15:38:04.699Z,9.00
2023-05-07T15:40:35.397Z,9.43
2023-05-07T15:43:03.658Z,8.90
2023-05-07T15:45:31.452Z,9.07
2023-05-07T15:47:59.370Z,8.87
2023-05-07T15:50:27.556Z,9.57
2023-05-07T15:52:55.161Z,9.23
2023-05-07T15:55:22.999Z,8.50
2023-05-07T15:57:51.628Z,9.87
2023-05-07T16:00:20.123Z,7.63
2023-05-07T16:02:47.828Z,8.50
2023-05-07T16:05:16.018Z,7.93
2023-05-07T16:07:44.459Z,8.93
2023-05-07T16:10:12.657Z,8.43
2023-05-07T16:12:40.382Z,9.20
2023-05-07T16:15:09.326Z,9.43
2023-05-07T16:17:37.517Z,9.30
2023-05-07T16:20:06.811Z,9.63
2023-05-07T16:22:34.467Z,10.00
2023-05-07T16:25:02.572Z,9.20
2023-05-07T16:27:30.387Z,9.73
2023-05-07T16:29:58.321Z,10.30
2023-05-07T16:32:28.432Z,9.50
2023-05-07T16:34:56.140Z,8.87
2023-05-07T16:37:23.744Z,9.97
2023-05-07T16:39:51.328Z,9.70
2023-05-07T16:42:18.932Z,10.00
2023-05-07T16:44:46.446Z,9.93
2023-05-07T16:47:14.165Z,9.03
2023-05-07T16:49:42.238Z,9.63
2023-05-07T16:52:10.043Z,8.87
2023-05-07T16:54:37.641Z,11.00
2023-05-07T16:57:05.308Z,9.63
2023-05-07T16:59:33.678Z,8.97
2023-05-07T17:02:01.394Z,10.17
2023-05-07T17:04:29.968Z,9.33
2023-05-07T17:06:57.908Z,9.80
2023-05-07T17:09:25.928Z,9.87
2023-05-07T17:11:53.605Z,9.40
2023-05-07T17:14:21.364Z,10.10
2023-05-07T17:16:48.947Z,9.40
2023-05-07T17:19:16.621Z,9.20
2023-05-07T17:21:44.310Z,9.30
2023-05-07T17:24:11.972Z,11.30
2023-05-07T17:26:42.893Z,10.40
2023-05-07T17:29:11.401Z,9.83
2023-05-07T17:31:39.125Z,9.63
2023-05-07T17:34:06.704Z,11.70
2023-05-07T17:36:34.396Z,9.30
2023-05-07T17:39:02.572Z,9.97
2023-05-07T17:41:30.236Z,10.33
2023-05-07T17:43:57.807Z,9.57
2023-05-07T17:46:25.874Z,9.90
2023-05-07T17:48:53.597Z,10.27
2023-05-07T17:51:21.341Z,10.47
2023-05-07T17:53:50.327Z,9.93
2023-05-07T17:56:17.982Z,9.50
2023-05-07T17:58:58.542Z,10.73
2023-05-07T18:01:30.375Z,10.60
2023-05-07T18:03:58.154Z,10.60
2023-05-07T18:06:25.936Z,10.93
2023-05-07T18:08:54.996Z,11.40
2023-05-07T18:11:24.664Z,11.47
2023-05-07T18:13:52.487Z,11.43
2023-05-07T18:16:20.306Z,11.00
2023-05-07T18:18:47.950Z,11.00
2023-05-07T18:21:18.954Z,11.63
2023-05-07T18:23:51.531Z,11.13
2023-05-07T18:26:19.227Z,11.23
2023-05-07T18:28:47.000Z,11.63
2023-05-07T18:31:14.804Z,10.97
2023-05-07T18:33:42.498Z,11.30
2023-05-07T18:36:10.092Z,10.90
2023-05-07T18:38:38.962Z,12.40
2023-05-07T18:41:06.768Z,11.20
2023-05-07T18:43:34.450Z,10.87
2023-05-07T18:46:02.263Z,11.80
2023-05-07T18:48:29.919Z,11.00
2023-05-07T18:50:57.609Z,11.37
2023-05-07T18:53:25.385Z,12.07
2023-05-07T18:55:53.784Z,11.73
2023-05-07T18:58:22.236Z,12.43
2023-05-07T19:00:51.352Z,11.90
2023-05-07T19:03:19.081Z,11.50
2023-05-07T19:05:46.977Z,13.20
2023-05-07T19:08:15.153Z,10.53
2023-05-07T19:10:42.867Z,10.70
2023-05-07T19:13:11.066Z,10.37
2023-05-07T19:15:38.707Z,11.33
2023-05-07T19:18:08.380Z,12.70
2023-05-07T19:20:36.707Z,12.30
2023-05-07T19:23:06.858Z,12.97
2023-05-07T19:25:34.584Z,12.77
2023-05-07T19:28:02.088Z,11.47
2023-05-07T19:30:29.967Z,12.20
2023-05-07T19:33:01.526Z,11.00
2023-05-07T19:35:29.395Z,11.67
2023-05-07T19:37:57.080Z,11.60
2023-05-07T19:40:24.730Z,11.07
2023-05-07T19:42:52.483Z,10.90
2023-05-07T19:45:20.214Z,10.80
2023-05-07T19:47:49.546Z,11.37
2023-05-07T19:50:17.742Z,12.20
2023-05-07T19:52:45.826Z,11.60
2023-05-07T19:55:14.140Z,10.77
2023-05-07T19:57:42.022Z,11.33
2023-05-07T20:00:12.831Z,10.17
2023-05-07T20:02:43.479Z,10.77
2023-05-07T20:05:11.630Z,10.47
2023-05-07T20:07:41.615Z,10.90
2023-05-07T20:10:11.103Z,11.93
2023-05-07T20:12:38.975Z,11.50
2023-05-07T20:15:08.287Z,11.73
2023-05-07T20:17:35.959Z,11.10
2023-05-07T20:20:05.235Z,11.07
2023-05-07T20:22:33.303Z,12.40
2023-05-07T20:25:00.929Z,11.80
2023-05-07T20:27:28.590Z,10.30
2023-05-07T20:29:56.196Z,12.20
2023-05-07T20:32:24.074Z,11.20
2023-05-07T20:34:51.974Z,12.37
2023-05-07T20:37:19.576Z,11.80
2023-05-07T20:39:47.270Z,11.07
2023-05-07T20:42:15.095Z,10.13
2023-05-07T20:44:42.711Z,11.70
2023-05-07T20:47:11.037Z,11.80
2023-05-07T20:49:38.762Z,12.20
2023-05-07T20:52:06.599Z,12.57
2023-05-07T20:54:40.022Z,11.30
2023-05-07T20:57:08.032Z,12.50
2023-05-07T20:59:35.937Z,12.10
2023-05-07T21:02:03.902Z,12.43
2023-05-07T21:04:32.398Z,13.30
2023-05-07T21:07:01.331Z,12.93
2023-05-07T21:09:28.986Z,12.40
2023-05-07T21:11:56.584Z,12.50
2023-05-07T21:14:24.242Z,11.73
2023-05-07T21:16:52.081Z,14.10
2023-05-07T21:19:19.759Z,13.03
2023-05-07T21:21:47.430Z,13.17
2023-05-07T21:24:15.056Z,12.57
2023-05-07T21:26:45.369Z,13.20
2023-05-07T21:29:12.978Z,14.47
2023-05-07T21:31:40.696Z,14.20
2023-05-07T21:34:08.297Z,15.03
2023-05-07T21:36:35.985Z,15.53
2023-05-07T21:39:03.579Z,16.00
2023-05-07T21:41:31.386Z,14.33
2023-05-07T21:43:58.917Z,15.33
2023-05-07T21:46:26.698Z,14.90
2023-05-07T21:48:54.286Z,16.70
2023-05-07T21:51:21.948Z,14.57
2023-05-07T21:53:50.112Z,15.27
2023-05-07T21:56:17.730Z,15.70
2023-05-07T21:58:45.400Z,15.50
2023-05-07T22:01:13.522Z,14.33
2023-05-07T22:03:41.554Z,15.70
2023-05-07T22:06:09.292Z,16.40
2023-05-07T22:08:37.400Z,15.93
2023-05-07T22:11:05.079Z,15.43
2023-05-07T22:13:32.682Z,15.97
2023-05-07T22:16:00.562Z,15.87
2023-05-07T22:18:28.124Z,16.37
2023-05-07T22:20:55.723Z,16.10
2023-05-07T22:23:23.809Z,16.43
2023-05-07T22:25:51.959Z,15.50
2023-05-07T22:28:19.630Z,16.07
2023-05-07T22:30:47.320Z,15.70
2023-05-07T22:33:15.235Z,16.73
2023-05-07T22:35:42.833Z,15.20
2023-05-07T22:38:10.631Z,16.70
2023-05-07T22:40:38.266Z,15.73
2023-05-07T22:43:05.884Z,16.37
2023-05-07T22:45:33.580Z,15.80
2023-05-07T22:48:01.191Z,17.37
2023-05-07T22:50:28.828Z,15.73
2023-05-07T22:52:56.406Z,17.33
2023-05-07T22:55:24.133Z,15.83
2023-05-07T22:57:51.708Z,17.17
2023-05-07T23:00:19.544Z,17.50
2023-05-07T23:02:47.513Z,17.30
2023-05-07T23:05:15.581Z,16.30
2023-05-07T23:07:43.227Z,16.97
2023-05-07T23:10:11.272Z,17.80
2023-05-07T23:12:39.012Z,15.67
2023-05-07T23:15:08.260Z,17.47
2023-05-07T23:17:35.946Z,17.60
2023-05-07T23:20:03.820Z,16.53
2023-05-07T23:22:31.644Z,17.03
2023-05-07T23:24:59.384Z,17.30
2023-05-07T23:27:27.614Z,16.10
2023-05-07T23:29:55.734Z,17.40
2023-05-07T23:32:23.607Z,18.13
2023-05-07T23:34:55.602Z,17.60
2023-05-07T23:37:24.804Z,17.03
2023-05-07T23:39:56.102Z,17.13
2023-05-07T23:42:23.746Z,17.60
2023-05-07T23:44:51.959Z,17.17
2023-05-07T23:47:19.630Z,16.90
2023-05-07T23:49:47.308Z,16.50
2023-05-07T23:52:14.926Z,16.57
2023-05-07T23:54:42.525Z,16.47
2023-05-07T23:57:10.187Z,17.10
2023-05-07T23:59:37.759Z,17.77
